sensor_id;sensor_type;location;lat;lon;timestamp;temperature;humidity
32749;DHT22;19119;52.474;13.710;2024-03-02T00:01:06;8.20;99.90
32749;DHT22;19119;52.474;13.710;2024-03-02T00:03:32;8.30;99.90
32749;DHT22;19119;52.474;13.710;2024-03-02T00:05:58;8.30;99.90
32749;DHT22;19119;52.474;13.710;2024-03-02T00:08:25;8.30;99.90
32749;DHT22;19119;52.474;13.710;2024-03-02T00:10:51;8.30;99.90
32749;DHT22;19119;52.474;13.710;2024-03-02T00:13:20;8.30;99.90
32749;DHT22;19119;52.474;13.710;2024-03-02T00:15:53;8.30;99.90
32749;DHT22;19119;52.474;13.710;2024-03-02T00:18:26;8.30;99.90
32749;DHT22;19119;52.474;13.710;2024-03-02T00:20:56;8.30;99.90
32749;DHT22;19119;52.474;13.710;2024-03-02T00:23:22;8.30;99.90
32749;DHT22;19119;52.474;13.710;2024-03-02T00:25:53;8.30;99.90
32749;DHT22;19119;52.474;13.710;2024-03-02T00:28:27;8.30;99.90
32749;DHT22;19119;52.474;13.710;2024-03-02T00:33:44;8.30;99.90
32749;DHT22;19119;52.474;13.710;2024-03-02T00:36:12;8.40;99.90
32749;DHT22;19119;52.474;13.710;2024-03-02T00:41:27;8.40;99.90
32749;DHT22;19119;52.474;13.710;2024-03-02T00:46:33;8.40;99.90
32749;DHT22;19119;52.474;13.710;2024-03-02T00:49:17;8.40;99.90
32749;DHT22;19119;52.474;13.710;2024-03-02T00:51:47;8.30;99.90
32749;DHT22;19119;52.474;13.710;2024-03-02T00:54:14;8.30;99.90
32749;DHT22;19119;52.474;13.710;2024-03-02T00:56:41;8.30;99.90
32749;DHT22;19119;52.474;13.710;2024-03-02T00:59:07;8.30;99.90
32749;DHT22;19119;52.474;13.710;2024-03-02T01:01:33;8.40;99.90
32749;DHT22;19119;52.474;13.710;2024-03-02T01:03:59;8.30;99.90
32749;DHT22;19119;52.474;13.710;2024-03-02T01:06:24;8.20;99.90
32749;DHT22;19119;52.474;13.710;2024-03-02T01:08:50;8.30;99.90
32749;DHT22;19119;52.474;13.710;2024-03-02T01:11:17;8.40;99.90
32749;DHT22;19119;52.474;13.710;2024-03-02T01:13:43;8.40;99.90
32749;DHT22;19119;52.474;13.710;2024-03-02T01:16:09;8.40;99.90
32749;DHT22;19119;52.474;13.710;2024-03-02T01:18:34;8.40;99.90
32749;DHT22;19119;52.474;13.710;2024-03-02T01:21:00;8.30;99.90
32749;DHT22;19119;52.474;13.710;2024-03-02T01:23:25;8.20;99.90
32749;DHT22;19119;52.474;13.710;2024-03-02T01:25:51;8.20;99.90
32749;DHT22;19119;52.474;13.710;2024-03-02T01:28:17;8.20;99.90
32749;DHT22;19119;52.474;13.710;2024-03-02T01:30:44;8.20;99.90
32749;DHT22;19119;52.474;13.710;2024-03-02T01:33:09;8.40;99.90
32749;DHT22;19119;52.474;13.710;2024-03-02T01:35:35;8.40;99.90
32749;DHT22;19119;52.474;13.710;2024-03-02T01:38:01;8.40;99.90
32749;DHT22;19119;52.474;13.710;2024-03-02T01:40:27;8.40;99.90
32749;DHT22;19119;52.474;13.710;2024-03-02T01:42:53;8.40;99.90
32749;DHT22;19119;52.474;13.710;2024-03-02T01:45:20;8.50;99.90
32749;DHT22;19119;52.474;13.710;2024-03-02T01:47:45;8.40;99.90
32749;DHT22;19119;52.474;13.710;2024-03-02T01:50:11;8.40;99.90
32749;DHT22;19119;52.474;13.710;2024-03-02T01:52:37;8.50;99.90
32749;DHT22;19119;52.474;13.710;2024-03-02T01:55:03;8.40;99.90
32749;DHT22;19119;52.474;13.710;2024-03-02T01:57:29;8.40;99.90
32749;DHT22;19119;52.474;13.710;2024-03-02T01:59:55;8.40;99.90
32749;DHT22;19119;52.474;13.710;2024-03-02T02:02:20;8.40;99.90
32749;DHT22;19119;52.474;13.710;2024-03-02T02:04:46;8.50;99.90
32749;DHT22;19119;52.474;13.710;2024-03-02T02:07:12;8.50;99.90
32749;DHT22;19119;52.474;13.710;2024-03-02T02:09:42;8.40;99.90
32749;DHT22;19119;52.474;13.710;2024-03-02T02:12:09;8.50;99.90
32749;DHT22;19119;52.474;13.710;2024-03-02T02:14:34;8.50;99.90
32749;DHT22;19119;52.474;13.710;2024-03-02T02:17:00;8.60;99.90
32749;DHT22;19119;52.474;13.710;2024-03-02T02:19:25;8.60;99.90
32749;DHT22;19119;52.474;13.710;2024-03-02T02:21:51;8.60;99.90
32749;DHT22;19119;52.474;13.710;2024-03-02T02:24:16;8.70;99.90
32749;DHT22;19119;52.474;13.710;2024-03-02T02:26:42;8.60;99.90
32749;DHT22;19119;52.474;13.710;2024-03-02T02:29:07;8.50;99.90
32749;DHT22;19119;52.474;13.710;2024-03-02T02:31:39;8.50;99.90
32749;DHT22;19119;52.474;13.710;2024-03-02T02:34:06;8.60;99.90
32749;DHT22;19119;52.474;13.710;2024-03-02T02:36:32;8.50;99.90
32749;DHT22;19119;52.474;13.710;2024-03-02T02:39:02;8.70;99.90
32749;DHT22;19119;52.474;13.710;2024-03-02T02:41:29;8.60;99.90
32749;DHT22;19119;52.474;13.710;2024-03-02T02:43:55;8.70;99.90
32749;DHT22;19119;52.474;13.710;2024-03-02T02:46:20;8.70;99.90
32749;DHT22;19119;52.474;13.710;2024-03-02T02:48:45;8.70;99.90
32749;DHT22;19119;52.474;13.710;2024-03-02T02:51:11;8.70;99.90
32749;DHT22;19119;52.474;13.710;2024-03-02T02:53:36;8.80;99.90
32749;DHT22;19119;52.474;13.710;2024-03-02T02:56:06;8.80;99.90
32749;DHT22;19119;52.474;13.710;2024-03-02T02:58:31;8.80;99.90
32749;DHT22;19119;52.474;13.710;2024-03-02T03:00:57;8.80;99.90
32749;DHT22;19119;52.474;13.710;2024-03-02T03:03:22;8.80;99.90
32749;DHT22;19119;52.474;13.710;2024-03-02T03:05:48;8.90;99.90
32749;DHT22;19119;52.474;13.710;2024-03-02T03:08:14;8.90;99.90
32749;DHT22;19119;52.474;13.710;2024-03-02T03:10:41;8.90;99.90
32749;DHT22;19119;52.474;13.710;2024-03-02T03:13:06;8.90;99.90
32749;DHT22;19119;52.474;13.710;2024-03-02T03:15:34;9.00;99.90
32749;DHT22;19119;52.474;13.710;2024-03-02T03:18:00;9.00;99.90
32749;DHT22;19119;52.474;13.710;2024-03-02T03:20:25;9.00;99.90
32749;DHT22;19119;52.474;13.710;2024-03-02T03:22:51;9.00;99.90
32749;DHT22;19119;52.474;13.710;2024-03-02T03:25:16;9.00;99.90
32749;DHT22;19119;52.474;13.710;2024-03-02T03:27:42;9.00;99.90
32749;DHT22;19119;52.474;13.710;2024-03-02T03:30:08;9.00;99.90
32749;DHT22;19119;52.474;13.710;2024-03-02T03:32:33;9.10;99.90
32749;DHT22;19119;52.474;13.710;2024-03-02T03:34:59;9.10;99.90
32749;DHT22;19119;52.474;13.710;2024-03-02T03:37:24;9.10;99.90
32749;DHT22;19119;52.474;13.710;2024-03-02T03:39:52;9.10;99.90
32749;DHT22;19119;52.474;13.710;2024-03-02T03:42:17;9.10;99.90
32749;DHT22;19119;52.474;13.710;2024-03-02T03:44:43;9.10;99.90
32749;DHT22;19119;52.474;13.710;2024-03-02T03:47:08;9.20;99.90
32749;DHT22;19119;52.474;13.710;2024-03-02T03:49:34;9.20;99.90
32749;DHT22;19119;52.474;13.710;2024-03-02T03:51:59;9.20;99.90
32749;DHT22;19119;52.474;13.710;2024-03-02T03:54:25;9.20;99.90
32749;DHT22;19119;52.474;13.710;2024-03-02T03:56:51;9.20;99.90
32749;DHT22;19119;52.474;13.710;2024-03-02T03:59:16;9.20;99.90
32749;DHT22;19119;52.474;13.710;2024-03-02T04:01:42;9.20;99.90
32749;DHT22;19119;52.474;13.710;2024-03-02T04:04:07;9.20;99.90
32749;DHT22;19119;52.474;13.710;2024-03-02T04:06:32;9.20;99.90
32749;DHT22;19119;52.474;13.710;2024-03-02T04:08:58;9.20;99.90
32749;DHT22;19119;52.474;13.710;2024-03-02T04:11:23;9.20;99.90
32749;DHT22;19119;52.474;13.710;2024-03-02T04:13:49;9.20;99.90
32749;DHT22;19119;52.474;13.710;2024-03-02T04:16:14;9.20;99.90
32749;DHT22;19119;52.474;13.710;2024-03-02T04:18:40;9.20;99.90
32749;DHT22;19119;52.474;13.710;2024-03-02T04:21:05;9.20;99.90
32749;DHT22;19119;52.474;13.710;2024-03-02T04:23:31;9.20;99.90
32749;DHT22;19119;52.474;13.710;2024-03-02T04:25:56;9.20;99.90
32749;DHT22;19119;52.474;13.710;2024-03-02T04:28:22;9.20;99.90
32749;DHT22;19119;52.474;13.710;2024-03-02T04:30:47;9.20;99.90
32749;DHT22;19119;52.474;13.710;2024-03-02T04:33:13;9.20;99.90
32749;DHT22;19119;52.474;13.710;2024-03-02T04:35:38;9.20;99.90
32749;DHT22;19119;52.474;13.710;2024-03-02T04:38:04;9.20;99.90
32749;DHT22;19119;52.474;13.710;2024-03-02T04:40:29;9.20;99.90
32749;DHT22;19119;52.474;13.710;2024-03-02T04:42:55;9.20;99.90
32749;DHT22;19119;52.474;13.710;2024-03-02T04:45:20;9.10;99.90
32749;DHT22;19119;52.474;13.710;2024-03-02T04:47:46;9.20;99.90
32749;DHT22;19119;52.474;13.710;2024-03-02T04:50:11;9.10;99.90
32749;DHT22;19119;52.474;13.710;2024-03-02T04:52:37;9.20;99.90
32749;DHT22;19119;52.474;13.710;2024-03-02T04:55:03;9.20;99.90
32749;DHT22;19119;52.474;13.710;2024-03-02T04:57:35;9.20;99.90
32749;DHT22;19119;52.474;13.710;2024-03-02T05:00:01;9.20;99.90
32749;DHT22;19119;52.474;13.710;2024-03-02T05:02:26;9.10;99.90
32749;DHT22;19119;52.474;13.710;2024-03-02T05:04:52;9.20;99.90
32749;DHT22;19119;52.474;13.710;2024-03-02T05:07:17;9.20;99.90
32749;DHT22;19119;52.474;13.710;2024-03-02T05:09:42;9.20;99.90
32749;DHT22;19119;52.474;13.710;2024-03-02T05:12:08;9.20;99.90
32749;DHT22;19119;52.474;13.710;2024-03-02T05:14:42;9.20;99.90
32749;DHT22;19119;52.474;13.710;2024-03-02T05:17:08;9.20;99.90
32749;DHT22;19119;52.474;13.710;2024-03-02T05:19:33;9.10;99.90
32749;DHT22;19119;52.474;13.710;2024-03-02T05:21:59;9.20;99.90
32749;DHT22;19119;52.474;13.710;2024-03-02T05:24:24;9.30;99.90
32749;DHT22;19119;52.474;13.710;2024-03-02T05:26:52;9.20;99.90
32749;DHT22;19119;52.474;13.710;2024-03-02T05:29:18;9.20;99.90
32749;DHT22;19119;52.474;13.710;2024-03-02T05:31:44;9.10;99.90
32749;DHT22;19119;52.474;13.710;2024-03-02T05:34:09;9.10;99.90
32749;DHT22;19119;52.474;13.710;2024-03-02T05:36:34;9.20;99.90
32749;DHT22;19119;52.474;13.710;2024-03-02T05:39:00;9.20;99.90
32749;DHT22;19119;52.474;13.710;2024-03-02T05:41:26;9.10;99.90
32749;DHT22;19119;52.474;13.710;2024-03-02T05:43:52;9.20;99.90
32749;DHT22;19119;52.474;13.710;2024-03-02T05:46:17;9.20;99.90
32749;DHT22;19119;52.474;13.710;2024-03-02T05:48:43;9.20;99.90
32749;DHT22;19119;52.474;13.710;2024-03-02T05:51:08;9.20;99.90
32749;DHT22;19119;52.474;13.710;2024-03-02T05:53:34;9.20;99.90
32749;DHT22;19119;52.474;13.710;2024-03-02T05:55:59;9.10;99.90
32749;DHT22;19119;52.474;13.710;2024-03-02T05:58:25;9.20;99.90
32749;DHT22;19119;52.474;13.710;2024-03-02T06:01:03;9.10;99.90
32749;DHT22;19119;52.474;13.710;2024-03-02T06:03:30;9.10;99.90
32749;DHT22;19119;52.474;13.710;2024-03-02T06:05:55;9.10;99.90
32749;DHT22;19119;52.474;13.710;2024-03-02T06:08:21;9.10;99.90
32749;DHT22;19119;52.474;13.710;2024-03-02T06:10:46;9.10;99.90
32749;DHT22;19119;52.474;13.710;2024-03-02T06:13:12;9.10;99.90
32749;DHT22;19119;52.474;13.710;2024-03-02T06:15:37;9.10;99.90
32749;DHT22;19119;52.474;13.710;2024-03-02T06:18:03;9.10;99.90
32749;DHT22;19119;52.474;13.710;2024-03-02T06:20:28;9.20;99.90
32749;DHT22;19119;52.474;13.710;2024-03-02T06:22:56;9.20;99.90
32749;DHT22;19119;52.474;13.710;2024-03-02T06:25:21;9.30;99.90
32749;DHT22;19119;52.474;13.710;2024-03-02T06:27:47;9.30;99.90
32749;DHT22;19119;52.474;13.710;2024-03-02T06:30:12;9.30;99.90
32749;DHT22;19119;52.474;13.710;2024-03-02T06:32:38;9.30;99.90
32749;DHT22;19119;52.474;13.710;2024-03-02T06:35:04;9.30;99.90
32749;DHT22;19119;52.474;13.710;2024-03-02T06:37:31;9.30;99.90
32749;DHT22;19119;52.474;13.710;2024-03-02T06:39:56;9.30;99.90
32749;DHT22;19119;52.474;13.710;2024-03-02T06:42:22;9.30;99.90
32749;DHT22;19119;52.474;13.710;2024-03-02T06:44:47;9.30;99.90
32749;DHT22;19119;52.474;13.710;2024-03-02T06:47:13;9.40;99.90
32749;DHT22;19119;52.474;13.710;2024-03-02T06:49:38;9.50;99.90
32749;DHT22;19119;52.474;13.710;2024-03-02T06:52:04;9.50;99.90
32749;DHT22;19119;52.474;13.710;2024-03-02T06:54:29;9.50;99.90
32749;DHT22;19119;52.474;13.710;2024-03-02T06:56:55;9.60;99.90
32749;DHT22;19119;52.474;13.710;2024-03-02T06:59:20;9.60;99.90
32749;DHT22;19119;52.474;13.710;2024-03-02T07:01:46;9.60;99.90
32749;DHT22;19119;52.474;13.710;2024-03-02T07:04:11;9.60;99.90
32749;DHT22;19119;52.474;13.710;2024-03-02T07:06:36;9.60;99.90
32749;DHT22;19119;52.474;13.710;2024-03-02T07:09:02;9.60;99.90
32749;DHT22;19119;52.474;13.710;2024-03-02T07:11:27;9.60;99.90
32749;DHT22;19119;52.474;13.710;2024-03-02T07:13:53;9.60;99.90
32749;DHT22;19119;52.474;13.710;2024-03-02T07:16:18;9.60;99.90
32749;DHT22;19119;52.474;13.710;2024-03-02T07:18:54;9.60;99.90
32749;DHT22;19119;52.474;13.710;2024-03-02T07:21:20;9.60;99.90
32749;DHT22;19119;52.474;13.710;2024-03-02T07:23:47;9.60;99.90
32749;DHT22;19119;52.474;13.710;2024-03-02T07:26:13;9.60;99.90
32749;DHT22;19119;52.474;13.710;2024-03-02T07:28:40;9.60;99.90
32749;DHT22;19119;52.474;13.710;2024-03-02T07:31:06;9.60;99.90
32749;DHT22;19119;52.474;13.710;2024-03-02T07:33:32;9.50;99.90
32749;DHT22;19119;52.474;13.710;2024-03-02T07:35:59;9.50;99.90
32749;DHT22;19119;52.474;13.710;2024-03-02T07:38:26;9.50;99.90
32749;DHT22;19119;52.474;13.710;2024-03-02T07:40:52;9.50;99.90
32749;DHT22;19119;52.474;13.710;2024-03-02T07:43:18;9.50;99.90
32749;DHT22;19119;52.474;13.710;2024-03-02T07:45:47;9.70;99.90
32749;DHT22;19119;52.474;13.710;2024-03-02T07:48:14;9.60;99.90
32749;DHT22;19119;52.474;13.710;2024-03-02T07:50:39;9.60;99.90
32749;DHT22;19119;52.474;13.710;2024-03-02T07:53:05;9.60;99.90
32749;DHT22;19119;52.474;13.710;2024-03-02T07:55:31;9.60;99.90
32749;DHT22;19119;52.474;13.710;2024-03-02T07:57:57;9.60;99.90
32749;DHT22;19119;52.474;13.710;2024-03-02T08:00:23;9.60;99.90
32749;DHT22;19119;52.474;13.710;2024-03-02T08:02:50;9.60;99.90
32749;DHT22;19119;52.474;13.710;2024-03-02T08:05:16;9.60;99.90
32749;DHT22;19119;52.474;13.710;2024-03-02T08:07:43;9.60;99.90
32749;DHT22;19119;52.474;13.710;2024-03-02T08:10:09;9.70;99.90
32749;DHT22;19119;52.474;13.710;2024-03-02T08:12:34;9.80;99.90
32749;DHT22;19119;52.474;13.710;2024-03-02T08:15:00;9.90;99.90
32749;DHT22;19119;52.474;13.710;2024-03-02T08:17:25;10.00;99.90
32749;DHT22;19119;52.474;13.710;2024-03-02T08:19:51;10.10;99.90
32749;DHT22;19119;52.474;13.710;2024-03-02T08:22:16;10.00;99.90
32749;DHT22;19119;52.474;13.710;2024-03-02T08:24:42;10.00;99.90
32749;DHT22;19119;52.474;13.710;2024-03-02T08:27:07;10.10;99.90
32749;DHT22;19119;52.474;13.710;2024-03-02T08:29:34;10.10;99.90
32749;DHT22;19119;52.474;13.710;2024-03-02T08:32:00;10.20;99.90
32749;DHT22;19119;52.474;13.710;2024-03-02T08:34:25;10.10;99.90
32749;DHT22;19119;52.474;13.710;2024-03-02T08:36:51;10.10;99.90
32749;DHT22;19119;52.474;13.710;2024-03-02T08:39:17;10.10;99.90
32749;DHT22;19119;52.474;13.710;2024-03-02T08:41:44;10.10;99.90
32749;DHT22;19119;52.474;13.710;2024-03-02T08:44:09;10.10;99.90
32749;DHT22;19119;52.474;13.710;2024-03-02T08:46:35;10.00;99.90
32749;DHT22;19119;52.474;13.710;2024-03-02T08:49:01;9.90;99.90
32749;DHT22;19119;52.474;13.710;2024-03-02T08:51:26;9.90;99.90
32749;DHT22;19119;52.474;13.710;2024-03-02T08:53:52;9.90;99.90
32749;DHT22;19119;52.474;13.710;2024-03-02T08:56:17;9.90;99.90
32749;DHT22;19119;52.474;13.710;2024-03-02T08:58:43;9.90;99.90
32749;DHT22;19119;52.474;13.710;2024-03-02T09:01:10;10.00;99.90
32749;DHT22;19119;52.474;13.710;2024-03-02T09:03:35;9.90;99.90
32749;DHT22;19119;52.474;13.710;2024-03-02T09:06:02;10.00;99.90
32749;DHT22;19119;52.474;13.710;2024-03-02T09:08:28;9.90;99.90
32749;DHT22;19119;52.474;13.710;2024-03-02T09:10:54;9.90;99.90
32749;DHT22;19119;52.474;13.710;2024-03-02T09:13:20;10.00;99.90
32749;DHT22;19119;52.474;13.710;2024-03-02T09:15:46;10.00;99.90
32749;DHT22;19119;52.474;13.710;2024-03-02T09:18:11;9.90;99.90
32749;DHT22;19119;52.474;13.710;2024-03-02T09:20:36;10.10;99.90
32749;DHT22;19119;52.474;13.710;2024-03-02T09:23:02;10.20;99.90
32749;DHT22;19119;52.474;13.710;2024-03-02T09:25:27;10.20;99.90
32749;DHT22;19119;52.474;13.710;2024-03-02T09:27:53;10.30;99.90
32749;DHT22;19119;52.474;13.710;2024-03-02T09:30:18;10.30;99.90
32749;DHT22;19119;52.474;13.710;2024-03-02T09:32:44;10.40;99.90
32749;DHT22;19119;52.474;13.710;2024-03-02T09:35:09;10.60;99.90
32749;DHT22;19119;52.474;13.710;2024-03-02T09:37:35;10.70;99.90
32749;DHT22;19119;52.474;13.710;2024-03-02T09:40:01;10.90;99.90
32749;DHT22;19119;52.474;13.710;2024-03-02T09:42:27;11.00;99.90
32749;DHT22;19119;52.474;13.710;2024-03-02T09:44:53;11.00;99.90
32749;DHT22;19119;52.474;13.710;2024-03-02T09:47:19;10.90;99.90
32749;DHT22;19119;52.474;13.710;2024-03-02T09:49:44;11.00;99.90
32749;DHT22;19119;52.474;13.710;2024-03-02T09:52:10;10.90;99.90
32749;DHT22;19119;52.474;13.710;2024-03-02T09:54:36;11.20;99.90
32749;DHT22;19119;52.474;13.710;2024-03-02T09:57:02;11.30;99.90
32749;DHT22;19119;52.474;13.710;2024-03-02T09:59:28;11.30;99.90
32749;DHT22;19119;52.474;13.710;2024-03-02T10:02:02;11.40;99.90
32749;DHT22;19119;52.474;13.710;2024-03-02T10:04:29;11.40;99.90
32749;DHT22;19119;52.474;13.710;2024-03-02T10:07:11;11.50;99.90
32749;DHT22;19119;52.474;13.710;2024-03-02T10:09:37;11.70;99.90
32749;DHT22;19119;52.474;13.710;2024-03-02T10:12:07;12.00;99.90
32749;DHT22;19119;52.474;13.710;2024-03-02T10:14:33;12.20;99.90
32749;DHT22;19119;52.474;13.710;2024-03-02T10:17:07;12.50;99.90
32749;DHT22;19119;52.474;13.710;2024-03-02T10:19:33;12.60;99.90
32749;DHT22;19119;52.474;13.710;2024-03-02T10:22:03;12.40;99.90
32749;DHT22;19119;52.474;13.710;2024-03-02T10:24:43;12.10;99.90
32749;DHT22;19119;52.474;13.710;2024-03-02T10:27:17;12.10;99.90
32749;DHT22;19119;52.474;13.710;2024-03-02T10:29:46;12.10;99.90
32749;DHT22;19119;52.474;13.710;2024-03-02T10:32:12;12.10;99.90
32749;DHT22;19119;52.474;13.710;2024-03-02T10:34:43;12.00;99.90
32749;DHT22;19119;52.474;13.710;2024-03-02T10:37:11;12.30;99.90
32749;DHT22;19119;52.474;13.710;2024-03-02T10:39:37;12.30;99.90
32749;DHT22;19119;52.474;13.710;2024-03-02T10:42:06;12.50;99.90
32749;DHT22;19119;52.474;13.710;2024-03-02T10:44:33;12.40;99.90
32749;DHT22;19119;52.474;13.710;2024-03-02T10:47:03;12.30;99.90
32749;DHT22;19119;52.474;13.710;2024-03-02T10:49:30;12.40;99.90
32749;DHT22;19119;52.474;13.710;2024-03-02T10:51:59;12.50;99.90
32749;DHT22;19119;52.474;13.710;2024-03-02T10:54:25;12.40;99.90
32749;DHT22;19119;52.474;13.710;2024-03-02T10:56:53;12.60;99.90
32749;DHT22;19119;52.474;13.710;2024-03-02T11:01:57;12.90;99.90
32749;DHT22;19119;52.474;13.710;2024-03-02T11:04:24;13.10;99.90
32749;DHT22;19119;52.474;13.710;2024-03-02T11:06:51;12.80;99.90
32749;DHT22;19119;52.474;13.710;2024-03-02T11:09:19;12.90;99.90
32749;DHT22;19119;52.474;13.710;2024-03-02T11:11:56;13.00;99.90
32749;DHT22;19119;52.474;13.710;2024-03-02T11:14:24;12.90;99.90
32749;DHT22;19119;52.474;13.710;2024-03-02T11:16:51;12.80;99.90
32749;DHT22;19119;52.474;13.710;2024-03-02T11:19:17;13.00;99.90
32749;DHT22;19119;52.474;13.710;2024-03-02T11:21:43;13.20;99.90
32749;DHT22;19119;52.474;13.710;2024-03-02T11:26:49;13.30;99.90
32749;DHT22;19119;52.474;13.710;2024-03-02T11:29:49;13.30;99.90
32749;DHT22;19119;52.474;13.710;2024-03-02T11:32:24;13.40;99.90
32749;DHT22;19119;52.474;13.710;2024-03-02T11:34:51;13.30;99.90
32749;DHT22;19119;52.474;13.710;2024-03-02T11:37:18;14.00;99.90
32749;DHT22;19119;52.474;13.710;2024-03-02T11:39:49;14.10;99.90
32749;DHT22;19119;52.474;13.710;2024-03-02T11:42:15;14.10;99.90
32749;DHT22;19119;52.474;13.710;2024-03-02T11:44:42;13.90;99.90
32749;DHT22;19119;52.474;13.710;2024-03-02T11:47:10;13.70;99.90
32749;DHT22;19119;52.474;13.710;2024-03-02T11:49:38;13.90;99.90
32749;DHT22;19119;52.474;13.710;2024-03-02T11:52:05;13.80;99.90
32749;DHT22;19119;52.474;13.710;2024-03-02T11:54:33;13.70;99.90
32749;DHT22;19119;52.474;13.710;2024-03-02T11:57:02;13.80;99.90
32749;DHT22;19119;52.474;13.710;2024-03-02T11:59:28;13.70;99.90
32749;DHT22;19119;52.474;13.710;2024-03-02T12:01:54;13.70;99.90
32749;DHT22;19119;52.474;13.710;2024-03-02T12:04:24;13.90;99.90
32749;DHT22;19119;52.474;13.710;2024-03-02T12:06:58;13.80;99.90
32749;DHT22;19119;52.474;13.710;2024-03-02T12:09:28;13.80;99.90
32749;DHT22;19119;52.474;13.710;2024-03-02T12:12:07;13.80;99.90
32749;DHT22;19119;52.474;13.710;2024-03-02T12:14:35;14.00;99.90
32749;DHT22;19119;52.474;13.710;2024-03-02T12:17:01;14.40;99.90
32749;DHT22;19119;52.474;13.710;2024-03-02T12:19:27;14.70;99.90
32749;DHT22;19119;52.474;13.710;2024-03-02T12:21:59;15.00;99.90
32749;DHT22;19119;52.474;13.710;2024-03-02T12:24:27;15.60;99.90
32749;DHT22;19119;52.474;13.710;2024-03-02T12:26:53;15.90;99.90
32749;DHT22;19119;52.474;13.710;2024-03-02T12:29:19;15.50;99.90
32749;DHT22;19119;52.474;13.710;2024-03-02T12:31:48;15.60;99.90
32749;DHT22;19119;52.474;13.710;2024-03-02T12:34:15;15.80;99.90
32749;DHT22;19119;52.474;13.710;2024-03-02T12:36:41;16.70;99.90
32749;DHT22;19119;52.474;13.710;2024-03-02T12:39:08;17.50;99.90
32749;DHT22;19119;52.474;13.710;2024-03-02T12:41:37;17.40;99.90
32749;DHT22;19119;52.474;13.710;2024-03-02T12:44:05;16.90;99.90
32749;DHT22;19119;52.474;13.710;2024-03-02T12:46:32;16.70;99.90
32749;DHT22;19119;52.474;13.710;2024-03-02T12:48:58;16.50;99.90
32749;DHT22;19119;52.474;13.710;2024-03-02T12:51:27;16.60;99.90
32749;DHT22;19119;52.474;13.710;2024-03-02T12:53:54;16.10;99.90
32749;DHT22;19119;52.474;13.710;2024-03-02T12:56:20;16.40;99.90
32749;DHT22;19119;52.474;13.710;2024-03-02T12:58:46;17.80;99.90
32749;DHT22;19119;52.474;13.710;2024-03-02T13:01:15;18.50;99.90
32749;DHT22;19119;52.474;13.710;2024-03-02T13:03:43;18.30;99.90
32749;DHT22;19119;52.474;13.710;2024-03-02T13:06:09;19.30;99.90
32749;DHT22;19119;52.474;13.710;2024-03-02T13:08:35;19.30;99.90
32749;DHT22;19119;52.474;13.710;2024-03-02T13:11:01;19.80;99.90
32749;DHT22;19119;52.474;13.710;2024-03-02T13:13:30;20.20;99.90
32749;DHT22;19119;52.474;13.710;2024-03-02T13:15:55;19.40;99.90
32749;DHT22;19119;52.474;13.710;2024-03-02T13:18:22;19.20;99.90
32749;DHT22;19119;52.474;13.710;2024-03-02T13:20:47;18.30;99.90
32749;DHT22;19119;52.474;13.710;2024-03-02T13:23:13;18.00;99.90
32749;DHT22;19119;52.474;13.710;2024-03-02T13:25:39;18.30;99.90
32749;DHT22;19119;52.474;13.710;2024-03-02T13:28:05;18.50;99.90
32749;DHT22;19119;52.474;13.710;2024-03-02T13:30:32;18.80;99.90
32749;DHT22;19119;52.474;13.710;2024-03-02T13:32:57;19.10;99.90
32749;DHT22;19119;52.474;13.710;2024-03-02T13:35:23;19.30;99.90
32749;DHT22;19119;52.474;13.710;2024-03-02T13:37:48;19.30;99.90
32749;DHT22;19119;52.474;13.710;2024-03-02T13:40:15;19.60;99.90
32749;DHT22;19119;52.474;13.710;2024-03-02T13:42:45;19.20;99.90
32749;DHT22;19119;52.474;13.710;2024-03-02T13:45:12;19.00;99.90
32749;DHT22;19119;52.474;13.710;2024-03-02T13:47:37;18.80;99.90
32749;DHT22;19119;52.474;13.710;2024-03-02T13:50:03;18.10;99.90
32749;DHT22;19119;52.474;13.710;2024-03-02T13:52:30;17.20;99.90
32749;DHT22;19119;52.474;13.710;2024-03-02T13:54:56;17.00;99.90
32749;DHT22;19119;52.474;13.710;2024-03-02T13:57:21;17.00;99.90
32749;DHT22;19119;52.474;13.710;2024-03-02T13:59:47;16.90;99.90
32749;DHT22;19119;52.474;13.710;2024-03-02T14:02:12;16.50;99.90
32749;DHT22;19119;52.474;13.710;2024-03-02T14:04:38;16.40;99.90
32749;DHT22;19119;52.474;13.710;2024-03-02T14:07:04;16.30;99.90
32749;DHT22;19119;52.474;13.710;2024-03-02T14:09:32;16.00;99.90
32749;DHT22;19119;52.474;13.710;2024-03-02T14:11:58;15.40;99.90
32749;DHT22;19119;52.474;13.710;2024-03-02T14:14:26;15.30;99.90
32749;DHT22;19119;52.474;13.710;2024-03-02T14:16:53;15.00;99.90
32749;DHT22;19119;52.474;13.710;2024-03-02T14:19:19;14.80;99.90
32749;DHT22;19119;52.474;13.710;2024-03-02T14:21:45;14.80;99.90
32749;DHT22;19119;52.474;13.710;2024-03-02T14:24:11;15.20;99.90
32749;DHT22;19119;52.474;13.710;2024-03-02T14:26:36;14.70;99.90
32749;DHT22;19119;52.474;13.710;2024-03-02T14:29:03;14.80;99.90
32749;DHT22;19119;52.474;13.710;2024-03-02T14:31:29;14.60;99.90
32749;DHT22;19119;52.474;13.710;2024-03-02T14:33:54;14.30;99.90
32749;DHT22;19119;52.474;13.710;2024-03-02T14:36:20;14.20;99.90
32749;DHT22;19119;52.474;13.710;2024-03-02T14:38:46;14.00;99.90
32749;DHT22;19119;52.474;13.710;2024-03-02T14:41:11;13.80;99.90
32749;DHT22;19119;52.474;13.710;2024-03-02T14:43:37;13.80;99.90
32749;DHT22;19119;52.474;13.710;2024-03-02T14:46:03;13.80;99.90
32749;DHT22;19119;52.474;13.710;2024-03-02T14:48:29;13.70;99.90
32749;DHT22;19119;52.474;13.710;2024-03-02T14:50:54;13.50;99.90
32749;DHT22;19119;52.474;13.710;2024-03-02T14:53:20;13.50;99.90
32749;DHT22;19119;52.474;13.710;2024-03-02T14:55:45;13.60;99.90
32749;DHT22;19119;52.474;13.710;2024-03-02T14:58:11;13.50;99.90
32749;DHT22;19119;52.474;13.710;2024-03-02T15:00:36;13.50;99.90
32749;DHT22;19119;52.474;13.710;2024-03-02T15:03:02;13.30;99.90
32749;DHT22;19119;52.474;13.710;2024-03-02T15:05:30;13.30;99.90
32749;DHT22;19119;52.474;13.710;2024-03-02T15:07:56;13.20;99.90
32749;DHT22;19119;52.474;13.710;2024-03-02T15:10:24;13.20;99.90
32749;DHT22;19119;52.474;13.710;2024-03-02T15:12:50;13.20;99.90
32749;DHT22;19119;52.474;13.710;2024-03-02T15:15:15;13.00;99.90
32749;DHT22;19119;52.474;13.710;2024-03-02T15:17:41;13.10;99.90
32749;DHT22;19119;52.474;13.710;2024-03-02T15:20:07;13.00;99.90
32749;DHT22;19119;52.474;13.710;2024-03-02T15:22:33;13.00;99.90
32749;DHT22;19119;52.474;13.710;2024-03-02T15:24:58;13.10;99.90
32749;DHT22;19119;52.474;13.710;2024-03-02T15:27:24;12.90;99.90
32749;DHT22;19119;52.474;13.710;2024-03-02T15:29:50;12.90;99.90
32749;DHT22;19119;52.474;13.710;2024-03-02T15:32:17;12.90;99.90
32749;DHT22;19119;52.474;13.710;2024-03-02T15:34:43;12.90;99.90